Time;durP1;ratioP1;P1;durP2;ratioP2;P2;SDS_P1;SDS_P2;PMS_P1;PMS_P2;Temp;Humidity;BMP_temperature;BMP_pressure;BME280_temperature;BME280_humidity;BME280_pressure;Samples;Min_cycle;Max_cycle;Signal;HPM_P1;HPM_P2
2023/12/18 00:01:10;;;;;;;13.52;5.85;;;;;;;;;;5038906;28;20044;-61
2023/12/18 00:03:36;;;;;;;12.63;6.13;;;;;;;;;;5043319;28;20028;-61
2023/12/18 00:06:02;;;;;;;11.90;4.85;;;;;;;;;;5039577;28;20477;-61
2023/12/18 00:08:28;;;;;;;12.45;5.95;;;;;;;;;;5042173;28;20041;-61
2023/12/18 00:10:54;;;;;;;13.07;5.45;;;;;;;;;;5040795;28;20064;-61
2023/12/18 00:13:20;;;;;;;8.60;4.53;;;;;;;;;;5041612;28;20044;-61
2023/12/18 00:15:46;;;;;;;14.23;5.53;;;;;;;;;;5041731;28;20037;-61
2023/12/18 00:18:12;;;;;;;8.68;5.03;;;;;;;;;;5040955;28;20045;-61
2023/12/18 00:20:38;;;;;;;10.32;4.22;;;;;;;;;;5040127;28;20476;-61
2023/12/18 00:23:04;;;;;;;14.70;4.82;;;;;;;;;;5038759;28;20066;-61
2023/12/18 00:25:30;;;;;;;11.07;4.88;;;;;;;;;;5041636;28;20033;-61
2023/12/18 00:27:56;;;;;;;11.35;4.68;;;;;;;;;;5040062;28;20569;-61
2023/12/18 00:30:22;;;;;;;10.48;4.60;;;;;;;;;;5040136;28;20441;-61
2023/12/18 00:32:48;;;;;;;10.55;4.93;;;;;;;;;;5025682;28;20562;-61
2023/12/18 00:35:15;;;;;;;10.63;4.20;;;;;;;;;;5040514;28;20037;-61
2023/12/18 00:37:41;;;;;;;10.85;3.95;;;;;;;;;;5041467;28;20533;-61
2023/12/18 00:40:07;;;;;;;11.48;4.45;;;;;;;;;;5042786;28;20045;-61
2023/12/18 00:42:33;;;;;;;14.00;4.80;;;;;;;;;;5043544;28;20400;-61
2023/12/18 00:44:59;;;;;;;12.77;4.82;;;;;;;;;;5041696;28;20041;-61
2023/12/18 00:47:25;;;;;;;10.02;4.35;;;;;;;;;;5044202;28;20092;-61
2023/12/18 00:49:51;;;;;;;11.02;3.88;;;;;;;;;;5043809;28;20054;-61
2023/12/18 00:52:17;;;;;;;14.82;5.03;;;;;;;;;;5045158;28;20052;-61
2023/12/18 00:54:43;;;;;;;11.00;4.72;;;;;;;;;;5045720;28;20067;-61
2023/12/18 00:57:09;;;;;;;14.43;4.50;;;;;;;;;;5043260;28;20263;-61
2023/12/18 00:59:35;;;;;;;7.05;3.65;;;;;;;;;;5043928;28;20029;-61
2023/12/18 01:02:00;;;;;;;10.15;4.45;;;;;;;;;;5044393;28;20654;-62
2023/12/18 01:04:27;;;;;;;5.03;3.33;;;;;;;;;;5043222;28;20037;-60
2023/12/18 01:06:53;;;;;;;12.52;3.75;;;;;;;;;;5044904;28;20037;-61
2023/12/18 01:09:18;;;;;;;11.40;4.22;;;;;;;;;;5044821;28;20547;-61
2023/12/18 01:11:44;;;;;;;6.63;3.38;;;;;;;;;;5045367;28;20047;-61
2023/12/18 01:14:11;;;;;;;7.65;3.88;;;;;;;;;;5043142;28;20045;-61
2023/12/18 01:16:37;;;;;;;14.15;4.50;;;;;;;;;;5045262;28;20028;-61
2023/12/18 01:19:04;;;;;;;11.07;3.88;;;;;;;;;;5041442;28;20079;-61
2023/12/18 01:21:30;;;;;;;10.95;3.65;;;;;;;;;;5043759;28;20424;-61
2023/12/18 01:23:56;;;;;;;7.80;3.38;;;;;;;;;;5044391;28;20045;-61
2023/12/18 01:26:22;;;;;;;8.95;3.60;;;;;;;;;;5044339;28;20041;-61
2023/12/18 01:28:48;;;;;;;7.93;3.70;;;;;;;;;;5042385;28;20566;-61
2023/12/18 01:31:24;;;;;;;9.18;3.47;;;;;;;;;;5042883;28;21187;-61
2023/12/18 01:33:52;;;;;;;9.32;3.47;;;;;;;;;;5043906;28;20037;-62
2023/12/18 01:36:18;;;;;;;5.60;2.80;;;;;;;;;;5044342;28;20176;-61
2023/12/18 01:38:44;;;;;;;6.60;2.90;;;;;;;;;;5042582;28;20505;-61
2023/12/18 01:41:10;;;;;;;10.20;4.07;;;;;;;;;;5043625;28;20072;-61
2023/12/18 01:43:36;;;;;;;6.65;3.08;;;;;;;;;;5043886;28;20040;-61
2023/12/18 01:46:03;;;;;;;7.35;3.85;;;;;;;;;;5043414;28;20055;-61
2023/12/18 01:48:30;;;;;;;14.70;3.65;;;;;;;;;;5043453;28;20052;-61
2023/12/18 01:50:57;;;;;;;7.03;2.90;;;;;;;;;;5042734;28;20501;-61
2023/12/18 01:53:27;;;;;;;8.57;3.25;;;;;;;;;;5041598;28;20077;-61
2023/12/18 01:55:54;;;;;;;9.20;2.97;;;;;;;;;;5041400;28;20040;-61
2023/12/18 01:58:20;;;;;;;4.93;2.53;;;;;;;;;;5043559;28;20047;-61
2023/12/18 02:00:46;;;;;;;7.38;3.10;;;;;;;;;;5041562;28;20041;-61
2023/12/18 02:03:13;;;;;;;7.47;2.90;;;;;;;;;;5042574;28;20374;-61
2023/12/18 02:05:39;;;;;;;7.60;3.13;;;;;;;;;;5039414;28;20037;-62
2023/12/18 02:08:06;;;;;;;10.27;3.22;;;;;;;;;;5038072;28;20040;-61
2023/12/18 02:10:32;;;;;;;5.72;2.58;;;;;;;;;;5044799;28;20053;-61
2023/12/18 02:12:58;;;;;;;5.07;2.63;;;;;;;;;;5040665;28;20033;-61
2023/12/18 02:15:24;;;;;;;12.10;3.38;;;;;;;;;;5037336;28;20098;-61
2023/12/18 02:17:50;;;;;;;10.32;3.90;;;;;;;;;;5040887;28;20559;-61
2023/12/18 02:20:17;;;;;;;8.00;2.85;;;;;;;;;;5044852;28;20061;-61
2023/12/18 02:22:48;;;;;;;8.02;2.80;;;;;;;;;;5037732;28;20033;-61
2023/12/18 02:25:18;;;;;;;7.82;2.47;;;;;;;;;;5043510;28;20056;-61
2023/12/18 02:27:45;;;;;;;11.48;2.83;;;;;;;;;;5038707;28;20094;-61
2023/12/18 02:30:14;;;;;;;14.18;3.35;;;;;;;;;;5035427;28;20045;-61
2023/12/18 02:32:40;;;;;;;13.68;2.88;;;;;;;;;;5042488;28;20048;-61
2023/12/18 02:35:07;;;;;;;8.10;2.60;;;;;;;;;;5035367;28;20409;-61
2023/12/18 02:37:33;;;;;;;5.65;2.30;;;;;;;;;;5037082;28;20478;-62
2023/12/18 02:39:59;;;;;;;7.80;2.75;;;;;;;;;;5041378;28;20550;-61
2023/12/18 02:42:25;;;;;;;10.43;2.95;;;;;;;;;;5041118;28;20049;-61
2023/12/18 02:44:51;;;;;;;6.40;2.58;;;;;;;;;;5037741;28;20045;-61
2023/12/18 02:47:17;;;;;;;7.10;2.83;;;;;;;;;;5038556;28;20592;-61
2023/12/18 02:49:43;;;;;;;6.43;2.15;;;;;;;;;;5032511;28;20055;-61
2023/12/18 02:52:10;;;;;;;8.95;2.92;;;;;;;;;;5038992;28;20131;-61
2023/12/18 02:54:36;;;;;;;9.18;2.95;;;;;;;;;;5034759;28;20501;-60
2023/12/18 02:57:02;;;;;;;7.57;2.72;;;;;;;;;;5039090;28;20044;-61
2023/12/18 02:59:28;;;;;;;5.95;2.72;;;;;;;;;;5043483;28;20056;-61
2023/12/18 03:01:54;;;;;;;9.30;2.92;;;;;;;;;;5035151;28;20498;-61
2023/12/18 03:04:20;;;;;;;10.75;3.72;;;;;;;;;;5042890;28;20037;-61
2023/12/18 03:06:46;;;;;;;3.33;1.95;;;;;;;;;;5039508;28;20079;-61
2023/12/18 03:09:13;;;;;;;9.25;2.90;;;;;;;;;;5036259;28;20098;-60
2023/12/18 03:11:42;;;;;;;7.47;2.63;;;;;;;;;;5035383;28;20037;-61
2023/12/18 03:14:10;;;;;;;11.57;3.38;;;;;;;;;;5037314;28;20045;-61
2023/12/18 03:16:36;;;;;;;9.20;2.75;;;;;;;;;;5038461;28;20041;-61
2023/12/18 03:19:02;;;;;;;9.00;3.15;;;;;;;;;;5041344;28;20085;-61
2023/12/18 03:21:28;;;;;;;9.82;3.42;;;;;;;;;;5041703;28;20033;-62
2023/12/18 03:23:54;;;;;;;8.73;3.38;;;;;;;;;;5042001;28;20055;-61
2023/12/18 03:26:20;;;;;;;4.45;2.35;;;;;;;;;;5044075;28;20066;-60
2023/12/18 03:28:46;;;;;;;5.65;2.63;;;;;;;;;;5041779;28;20040;-61
2023/12/18 03:31:14;;;;;;;7.00;3.22;;;;;;;;;;5041376;28;20044;-61
2023/12/18 03:33:40;;;;;;;5.68;2.35;;;;;;;;;;5041135;28;20670;-61
2023/12/18 03:36:06;;;;;;;9.13;2.65;;;;;;;;;;5040297;28;20045;-62
2023/12/18 03:38:32;;;;;;;9.80;2.90;;;;;;;;;;5040672;28;20128;-61
2023/12/18 03:40:59;;;;;;;6.75;3.00;;;;;;;;;;5041598;28;20131;-61
2023/12/18 03:43:25;;;;;;;4.63;2.50;;;;;;;;;;5042316;28;20033;-61
2023/12/18 03:45:51;;;;;;;9.20;2.70;;;;;;;;;;5042094;28;20040;-61
2023/12/18 03:48:18;;;;;;;9.95;3.15;;;;;;;;;;5041874;28;20045;-61
2023/12/18 03:50:44;;;;;;;10.02;3.08;;;;;;;;;;5043549;28;20041;-61
2023/12/18 03:53:10;;;;;;;12.20;2.90;;;;;;;;;;5041916;28;20041;-61
2023/12/18 03:55:37;;;;;;;6.07;2.78;;;;;;;;;;5041383;28;20043;-61
2023/12/18 03:58:03;;;;;;;9.50;2.78;;;;;;;;;;5041315;28;20059;-61
2023/12/18 04:00:29;;;;;;;10.00;3.20;;;;;;;;;;5037979;28;20513;-61
2023/12/18 04:02:55;;;;;;;15.07;3.28;;;;;;;;;;5042249;28;20061;-61
2023/12/18 04:05:23;;;;;;;13.43;3.95;;;;;;;;;;5040000;28;20045;-61
2023/12/18 04:07:49;;;;;;;11.15;2.72;;;;;;;;;;5042128;28;20069;-61
2023/12/18 04:10:15;;;;;;;12.00;3.20;;;;;;;;;;5042137;28;20509;-61
2023/12/18 04:12:42;;;;;;;12.20;2.92;;;;;;;;;;5042813;28;20064;-61
2023/12/18 04:15:09;;;;;;;11.13;3.78;;;;;;;;;;5043731;28;20099;-61
2023/12/18 04:17:35;;;;;;;6.68;2.53;;;;;;;;;;5046336;28;20060;-61
2023/12/18 04:20:01;;;;;;;13.27;3.00;;;;;;;;;;5042028;28;20045;-61
2023/12/18 04:22:27;;;;;;;7.05;2.90;;;;;;;;;;5041171;28;20492;-61
2023/12/18 04:24:53;;;;;;;11.00;3.42;;;;;;;;;;5041924;28;20033;-61
2023/12/18 04:27:19;;;;;;;12.07;3.00;;;;;;;;;;5041827;28;20099;-61
2023/12/18 04:29:45;;;;;;;7.85;3.40;;;;;;;;;;5046332;28;20408;-61
2023/12/18 04:32:11;;;;;;;8.88;3.40;;;;;;;;;;5043216;28;20053;-61
2023/12/18 04:34:37;;;;;;;9.95;3.20;;;;;;;;;;5039159;28;20575;-60
2023/12/18 04:37:03;;;;;;;5.75;2.55;;;;;;;;;;5043515;28;20135;-61
2023/12/18 04:39:29;;;;;;;6.55;2.58;;;;;;;;;;5044999;28;20041;-61
2023/12/18 04:41:55;;;;;;;8.13;2.55;;;;;;;;;;5042172;28;20453;-60
2023/12/18 04:44:21;;;;;;;8.45;2.80;;;;;;;;;;5043938;28;20052;-61
2023/12/18 04:46:47;;;;;;;8.05;2.72;;;;;;;;;;5041048;28;20098;-61
2023/12/18 04:49:13;;;;;;;5.97;2.88;;;;;;;;;;5040355;28;20076;-61
2023/12/18 04:51:39;;;;;;;5.97;2.55;;;;;;;;;;5038462;28;20087;-61
2023/12/18 04:54:05;;;;;;;8.52;3.30;;;;;;;;;;5046090;28;20068;-60
2023/12/18 04:56:31;;;;;;;8.95;3.50;;;;;;;;;;5042185;28;20045;-61
2023/12/18 04:58:57;;;;;;;12.82;3.88;;;;;;;;;;5043409;28;20048;-61
2023/12/18 05:01:23;;;;;;;10.13;3.80;;;;;;;;;;5043090;28;20060;-62
2023/12/18 05:03:49;;;;;;;9.15;3.50;;;;;;;;;;5045592;28;20717;-62
2023/12/18 05:06:22;;;;;;;15.07;4.30;;;;;;;;;;5045148;28;20045;-61
2023/12/18 05:08:49;;;;;;;10.02;4.13;;;;;;;;;;5041287;28;20106;-61
2023/12/18 05:11:18;;;;;;;7.82;4.13;;;;;;;;;;5040254;28;20184;-61
2023/12/18 05:13:44;;;;;;;7.85;3.85;;;;;;;;;;5044956;28;20036;-61
2023/12/18 05:16:11;;;;;;;12.43;4.95;;;;;;;;;;5040818;28;20080;-61
2023/12/18 05:18:37;;;;;;;10.02;4.63;;;;;;;;;;5042896;28;20036;-61
2023/12/18 05:21:06;;;;;;;12.07;4.95;;;;;;;;;;5040546;28;20099;-61
2023/12/18 05:23:32;;;;;;;10.20;3.83;;;;;;;;;;5038979;28;20079;-61
2023/12/18 05:25:58;;;;;;;10.65;4.43;;;;;;;;;;5038935;28;20048;-61
2023/12/18 05:28:25;;;;;;;8.57;3.53;;;;;;;;;;5036276;28;20045;-61
2023/12/18 05:30:51;;;;;;;10.50;3.88;;;;;;;;;;5044076;28;20152;-61
2023/12/18 05:33:17;;;;;;;6.85;3.70;;;;;;;;;;5043853;28;20072;-61
2023/12/18 05:35:43;;;;;;;8.13;3.78;;;;;;;;;;5044236;28;20497;-61
2023/12/18 05:38:09;;;;;;;13.75;4.80;;;;;;;;;;5041770;28;20041;-61
2023/12/18 05:40:35;;;;;;;11.90;4.20;;;;;;;;;;5042773;28;20034;-62
2023/12/18 05:43:01;;;;;;;11.13;3.75;;;;;;;;;;5043539;28;20060;-61
2023/12/18 05:45:27;;;;;;;9.63;4.45;;;;;;;;;;5042342;28;20037;-61
2023/12/18 05:47:53;;;;;;;9.32;4.45;;;;;;;;;;5041819;28;20719;-61
2023/12/18 05:50:19;;;;;;;8.00;3.97;;;;;;;;;;5040988;28;20044;-61
2023/12/18 05:52:45;;;;;;;7.18;3.85;;;;;;;;;;5040740;28;20037;-61
2023/12/18 05:55:11;;;;;;;9.95;4.75;;;;;;;;;;5039215;28;20068;-61
2023/12/18 05:57:38;;;;;;;13.60;5.57;;;;;;;;;;5041006;28;20056;-61
2023/12/18 06:00:07;;;;;;;10.40;5.05;;;;;;;;;;5040595;28;20083;-61
2023/12/18 06:02:33;;;;;;;13.32;5.70;;;;;;;;;;5036506;28;20617;-60
2023/12/18 06:04:59;;;;;;;10.70;5.28;;;;;;;;;;5038517;28;20048;-61
2023/12/18 06:07:25;;;;;;;12.98;5.18;;;;;;;;;;5032294;28;20128;-62
2023/12/18 06:09:51;;;;;;;8.32;5.13;;;;;;;;;;5035196;28;20524;-61
2023/12/18 06:12:17;;;;;;;8.50;5.30;;;;;;;;;;5038630;28;20133;-61
2023/12/18 06:14:43;;;;;;;8.90;5.65;;;;;;;;;;5034580;28;20116;-61
2023/12/18 06:17:10;;;;;;;18.52;5.57;;;;;;;;;;5037966;28;20398;-61
2023/12/18 06:19:36;;;;;;;11.45;5.68;;;;;;;;;;5038868;28;20107;-60
2023/12/18 06:22:03;;;;;;;17.35;6.53;;;;;;;;;;5039537;28;20084;-61
2023/12/18 06:24:29;;;;;;;10.57;5.95;;;;;;;;;;5043258;28;20038;-62
2023/12/18 06:26:55;;;;;;;14.80;5.70;;;;;;;;;;5038922;28;20159;-61
2023/12/18 06:29:22;;;;;;;8.63;5.45;;;;;;;;;;5043772;28;20036;-61
2023/12/18 06:31:48;;;;;;;10.77;5.53;;;;;;;;;;5044870;28;20053;-60
2023/12/18 06:34:14;;;;;;;9.20;6.13;;;;;;;;;;5036632;28;20038;-60
2023/12/18 06:36:40;;;;;;;10.85;6.22;;;;;;;;;;5044106;28;20497;-61
2023/12/18 06:39:06;;;;;;;12.90;5.45;;;;;;;;;;5041211;28;20079;-61
2023/12/18 06:41:32;;;;;;;16.13;7.53;;;;;;;;;;5042448;28;20064;-61
2023/12/18 06:43:58;;;;;;;16.85;6.63;;;;;;;;;;5039082;28;20045;-61
2023/12/18 06:46:24;;;;;;;16.85;7.15;;;;;;;;;;5040097;28;20045;-61
2023/12/18 06:48:50;;;;;;;13.52;6.47;;;;;;;;;;5037728;28;20514;-61
2023/12/18 06:51:16;;;;;;;12.35;6.30;;;;;;;;;;5042380;28;20057;-60
2023/12/18 06:53:43;;;;;;;18.80;8.05;;;;;;;;;;5036614;28;20440;-61
2023/12/18 06:56:09;;;;;;;17.48;8.57;;;;;;;;;;5035470;28;20512;-61
2023/12/18 06:58:35;;;;;;;12.77;7.13;;;;;;;;;;5043759;28;20578;-61
2023/12/18 07:01:01;;;;;;;12.95;7.15;;;;;;;;;;5042164;28;20554;-61
2023/12/18 07:03:27;;;;;;;17.40;8.18;;;;;;;;;;5041004;28;20036;-61
2023/12/18 07:05:53;;;;;;;17.15;8.05;;;;;;;;;;5040303;28;20280;-61
2023/12/18 07:08:20;;;;;;;12.07;7.18;;;;;;;;;;5040519;28;20052;-61
2023/12/18 07:10:46;;;;;;;15.82;7.68;;;;;;;;;;5041385;28;20106;-61
2023/12/18 07:13:12;;;;;;;17.92;8.50;;;;;;;;;;5040006;28;20045;-61
2023/12/18 07:15:38;;;;;;;20.55;8.55;;;;;;;;;;5042375;28;20052;-61
2023/12/18 07:18:07;;;;;;;12.23;7.57;;;;;;;;;;5041772;28;20128;-61
2023/12/18 07:20:33;;;;;;;16.48;8.32;;;;;;;;;;5041022;28;20091;-61
2023/12/18 07:22:59;;;;;;;14.05;7.13;;;;;;;;;;5041531;28;20115;-61
2023/12/18 07:25:25;;;;;;;12.85;8.60;;;;;;;;;;5040332;28;20116;-60
2023/12/18 07:27:51;;;;;;;17.00;8.45;;;;;;;;;;5043725;28;20516;-61
2023/12/18 07:30:17;;;;;;;17.80;8.52;;;;;;;;;;5037117;28;20604;-62
2023/12/18 07:32:43;;;;;;;15.00;7.65;;;;;;;;;;5039927;28;20074;-61
2023/12/18 07:35:10;;;;;;;17.08;8.80;;;;;;;;;;5040413;28;20079;-62
2023/12/18 07:37:35;;;;;;;17.17;9.30;;;;;;;;;;5039275;28;20045;-62
2023/12/18 07:40:03;;;;;;;17.83;8.90;;;;;;;;;;5038919;28;20049;-61
2023/12/18 07:42:29;;;;;;;21.23;9.32;;;;;;;;;;5040683;28;20610;-61
2023/12/18 07:44:55;;;;;;;15.70;8.30;;;;;;;;;;5041016;28;20044;-61
2023/12/18 07:47:21;;;;;;;12.48;7.90;;;;;;;;;;5039035;28;20032;-61
2023/12/18 07:49:48;;;;;;;15.05;8.75;;;;;;;;;;5040808;28;20080;-61
2023/12/18 07:52:14;;;;;;;14.40;7.95;;;;;;;;;;5040260;28;20041;-61
2023/12/18 07:54:41;;;;;;;15.38;10.10;;;;;;;;;;5040722;28;20108;-61
2023/12/18 07:57:07;;;;;;;18.35;8.98;;;;;;;;;;5039854;28;20044;-61
2023/12/18 07:59:36;;;;;;;16.27;8.43;;;;;;;;;;5040147;28;20143;-61
2023/12/18 08:02:02;;;;;;;12.48;8.05;;;;;;;;;;5039611;28;20047;-61
2023/12/18 08:04:28;;;;;;;13.98;8.40;;;;;;;;;;5039686;28;20124;-61
2023/12/18 08:06:54;;;;;;;14.15;7.90;;;;;;;;;;5041630;28;20560;-61
2023/12/18 08:09:20;;;;;;;14.20;7.45;;;;;;;;;;5040292;28;20037;-61
2023/12/18 08:11:46;;;;;;;18.42;9.02;;;;;;;;;;5041203;28;20604;-61
2023/12/18 08:14:12;;;;;;;19.20;9.63;;;;;;;;;;5039663;28;20077;-61
2023/12/18 08:16:38;;;;;;;13.70;8.43;;;;;;;;;;5039784;28;20083;-61
2023/12/18 08:19:04;;;;;;;12.32;7.07;;;;;;;;;;5039738;28;20067;-61
2023/12/18 08:21:31;;;;;;;15.25;7.90;;;;;;;;;;5041134;28;20053;-61
2023/12/18 08:23:57;;;;;;;14.85;7.40;;;;;;;;;;5040986;28;20041;-61
2023/12/18 08:26:23;;;;;;;17.05;7.82;;;;;;;;;;5038293;28;20622;-61
2023/12/18 08:28:49;;;;;;;14.65;8.07;;;;;;;;;;5042257;28;20541;-61
2023/12/18 08:31:15;;;;;;;9.25;6.97;;;;;;;;;;5038989;28;20547;-62
2023/12/18 08:33:41;;;;;;;12.57;8.00;;;;;;;;;;5038826;28;20041;-61
2023/12/18 08:36:07;;;;;;;17.13;9.27;;;;;;;;;;5040433;28;20041;-61
2023/12/18 08:38:33;;;;;;;14.80;7.82;;;;;;;;;;5041842;28;20044;-61
2023/12/18 08:40:59;;;;;;;16.08;8.43;;;;;;;;;;5040744;28;20090;-61
2023/12/18 08:43:25;;;;;;;15.45;8.43;;;;;;;;;;5038178;28;20482;-61
2023/12/18 08:45:51;;;;;;;20.65;8.55;;;;;;;;;;5037838;28;20052;-61
2023/12/18 08:48:17;;;;;;;15.85;9.02;;;;;;;;;;5042499;28;20049;-62
2023/12/18 08:50:44;;;;;;;17.98;9.38;;;;;;;;;;5036196;28;20037;-58
2023/12/18 08:53:10;;;;;;;18.65;10.10;;;;;;;;;;5041280;28;20086;-60
2023/12/18 08:55:39;;;;;;;18.40;9.48;;;;;;;;;;5044530;28;20045;-60
2023/12/18 08:58:08;;;;;;;16.15;9.95;;;;;;;;;;5044416;28;20053;-62
2023/12/18 09:00:34;;;;;;;19.25;9.55;;;;;;;;;;5046729;28;20044;-62
2023/12/18 09:03:00;;;;;;;20.42;10.68;;;;;;;;;;5047634;28;20556;-62
2023/12/18 09:05:28;;;;;;;23.80;11.18;;;;;;;;;;5048557;28;20128;-62
2023/12/18 09:07:54;;;;;;;16.83;10.02;;;;;;;;;;5049057;28;20104;-62
2023/12/18 09:10:22;;;;;;;16.38;9.45;;;;;;;;;;5048700;28;20525;-62
2023/12/18 09:12:48;;;;;;;22.08;10.55;;;;;;;;;;5044207;28;20041;-62
2023/12/18 09:15:14;;;;;;;36.35;9.85;;;;;;;;;;5048782;28;20075;-62
2023/12/18 09:17:40;;;;;;;16.38;10.05;;;;;;;;;;5045471;28;20628;-62
2023/12/18 09:20:07;;;;;;;13.48;9.35;;;;;;;;;;5045251;28;20040;-62
2023/12/18 09:22:33;;;;;;;16.98;9.88;;;;;;;;;;5040920;28;20080;-62
2023/12/18 09:24:59;;;;;;;15.60;9.88;;;;;;;;;;5046237;28;20049;-62
2023/12/18 09:27:25;;;;;;;17.65;10.15;;;;;;;;;;5046517;28;20037;-62
2023/12/18 09:29:51;;;;;;;19.63;9.30;;;;;;;;;;5047690;28;20461;-61
2023/12/18 09:32:17;;;;;;;17.00;9.90;;;;;;;;;;5044887;28;20045;-61
2023/12/18 09:34:43;;;;;;;13.82;8.38;;;;;;;;;;5046755;28;20033;-61
2023/12/18 09:37:09;;;;;;;18.42;9.77;;;;;;;;;;5044982;28;20048;-60
2023/12/18 09:39:35;;;;;;;19.23;10.45;;;;;;;;;;5044448;28;20071;-61
2023/12/18 09:42:02;;;;;;;20.23;10.68;;;;;;;;;;5043583;28;20041;-61
2023/12/18 09:44:31;;;;;;;30.90;10.85;;;;;;;;;;5046073;28;20080;-60
2023/12/18 09:46:58;;;;;;;15.82;9.75;;;;;;;;;;5046625;28;20080;-60
2023/12/18 09:49:24;;;;;;;25.52;10.73;;;;;;;;;;5044494;28;20143;-60
2023/12/18 09:51:53;;;;;;;16.95;9.23;;;;;;;;;;5040253;28;20072;-61
2023/12/18 09:54:20;;;;;;;16.63;10.68;;;;;;;;;;5045292;28;20032;-60
2023/12/18 09:56:48;;;;;;;15.70;9.75;;;;;;;;;;5044797;28;20043;-60
2023/12/18 09:59:16;;;;;;;21.50;10.68;;;;;;;;;;5040359;28;20124;-60
2023/12/18 10:01:42;;;;;;;14.57;10.60;;;;;;;;;;5040843;28;20045;-61
2023/12/18 10:04:08;;;;;;;15.88;9.63;;;;;;;;;;5046208;28;20119;-61
2023/12/18 10:06:34;;;;;;;13.25;9.20;;;;;;;;;;5044287;28;20040;-60
2023/12/18 10:09:04;;;;;;;15.95;10.15;;;;;;;;;;5053177;28;20098;-61
2023/12/18 10:11:30;;;;;;;24.20;10.65;;;;;;;;;;5035645;28;20042;-61
2023/12/18 10:13:56;;;;;;;21.65;10.32;;;;;;;;;;5042321;28;20053;-61
2023/12/18 10:16:22;;;;;;;28.58;11.55;;;;;;;;;;5045067;28;20041;-60
2023/12/18 10:18:48;;;;;;;18.42;10.00;;;;;;;;;;5034703;28;20048;-60
2023/12/18 10:21:21;;;;;;;14.95;9.63;;;;;;;;;;5037848;28;20136;-61
2023/12/18 10:23:48;;;;;;;20.80;11.15;;;;;;;;;;5043617;28;20671;-60
2023/12/18 10:26:14;;;;;;;16.92;9.77;;;;;;;;;;5043294;28;20057;-61
2023/12/18 10:28:40;;;;;;;22.20;9.82;;;;;;;;;;5041107;28;20121;-60
2023/12/18 10:31:08;;;;;;;16.15;10.05;;;;;;;;;;5043573;28;20045;-60
2023/12/18 10:33:34;;;;;;;16.35;10.13;;;;;;;;;;5038266;28;20052;-61
2023/12/18 10:36:00;;;;;;;18.17;9.88;;;;;;;;;;5046820;28;20083;-60
2023/12/18 10:38:30;;;;;;;16.42;9.52;;;;;;;;;;5044646;28;20033;-60
2023/12/18 10:41:00;;;;;;;17.25;10.38;;;;;;;;;;5042812;28;20041;-60
2023/12/18 10:43:27;;;;;;;14.98;9.60;;;;;;;;;;5043266;28;20136;-60
2023/12/18 10:45:54;;;;;;;16.10;10.60;;;;;;;;;;5047259;28;20116;-60
2023/12/18 10:48:20;;;;;;;19.60;10.65;;;;;;;;;;5045857;28;20493;-61
2023/12/18 10:50:51;;;;;;;18.98;10.55;;;;;;;;;;5043401;28;20048;-61
2023/12/18 10:53:18;;;;;;;16.23;10.82;;;;;;;;;;5046152;28;20627;-61
2023/12/18 10:55:44;;;;;;;24.55;11.27;;;;;;;;;;5043424;28;20033;-61
2023/12/18 10:58:11;;;;;;;22.83;11.38;;;;;;;;;;5045029;28;20115;-61
2023/12/18 11:00:38;;;;;;;18.90;10.90;;;;;;;;;;5037603;28;20037;-60
2023/12/18 11:03:05;;;;;;;16.70;11.68;;;;;;;;;;5037560;28;20450;-61
2023/12/18 11:05:32;;;;;;;15.23;9.95;;;;;;;;;;5044792;28;20080;-61
2023/12/18 11:07:58;;;;;;;17.67;11.23;;;;;;;;;;5045080;28;20314;-61
2023/12/18 11:10:27;;;;;;;19.70;12.95;;;;;;;;;;5047231;28;20504;-61
2023/12/18 11:12:59;;;;;;;20.52;10.82;;;;;;;;;;5045721;28;20037;-61
2023/12/18 11:15:37;;;;;;;15.85;11.43;;;;;;;;;;5046266;28;20036;-62
2023/12/18 11:18:09;;;;;;;22.48;13.55;;;;;;;;;;5045162;28;20037;-61
2023/12/18 11:20:36;;;;;;;21.75;11.75;;;;;;;;;;5035941;28;20075;-61
2023/12/18 11:23:03;;;;;;;18.35;11.80;;;;;;;;;;5044538;28;20412;-62
2023/12/18 11:25:36;;;;;;;21.92;12.05;;;;;;;;;;5046614;28;20063;-62
2023/12/18 11:28:02;;;;;;;17.60;11.68;;;;;;;;;;5046129;28;20087;-61
2023/12/18 11:30:35;;;;;;;13.73;11.25;;;;;;;;;;5045966;28;20049;-61
2023/12/18 11:33:05;;;;;;;21.15;12.23;;;;;;;;;;5046413;28;20040;-61
2023/12/18 11:35:31;;;;;;;19.13;12.57;;;;;;;;;;5046342;28;20049;-61
2023/12/18 11:38:11;;;;;;;19.27;11.93;;;;;;;;;;5044957;28;20045;-61
2023/12/18 11:40:40;;;;;;;22.27;10.75;;;;;;;;;;5045181;28;20044;-62
2023/12/18 11:43:07;;;;;;;14.80;9.68;;;;;;;;;;5042824;28;20049;-61
2023/12/18 11:45:34;;;;;;;24.00;12.10;;;;;;;;;;5046507;28;20041;-61
2023/12/18 11:48:04;;;;;;;24.83;11.07;;;;;;;;;;5046265;28;20191;-61
2023/12/18 11:50:34;;;;;;;18.15;11.43;;;;;;;;;;5045855;28;20033;-61
2023/12/18 11:53:00;;;;;;;23.63;12.15;;;;;;;;;;5046283;28;20037;-61
2023/12/18 11:55:42;;;;;;;20.92;11.25;;;;;;;;;;5046659;28;20065;-61
2023/12/18 11:58:08;;;;;;;15.23;10.20;;;;;;;;;;5038478;28;20041;-61
2023/12/18 12:00:34;;;;;;;16.25;10.45;;;;;;;;;;5046168;28;20041;-61
2023/12/18 12:03:01;;;;;;;16.58;10.57;;;;;;;;;;5043487;28;20101;-60
2023/12/18 12:05:28;;;;;;;20.20;11.52;;;;;;;;;;5035583;28;20446;-61
2023/12/18 12:07:55;;;;;;;19.40;11.50;;;;;;;;;;5046193;28;20128;-61
2023/12/18 12:10:21;;;;;;;20.92;12.60;;;;;;;;;;5046112;28;20064;-61
2023/12/18 12:12:54;;;;;;;16.95;12.35;;;;;;;;;;5044471;28;20120;-61
2023/12/18 12:15:24;;;;;;;21.55;11.73;;;;;;;;;;5036627;28;20037;-61
2023/12/18 12:18:02;;;;;;;19.48;12.30;;;;;;;;;;5041568;28;20485;-61
2023/12/18 12:20:28;;;;;;;16.67;11.75;;;;;;;;;;5037888;28;20044;-61
2023/12/18 12:22:54;;;;;;;18.45;11.48;;;;;;;;;;5046274;28;20530;-61
2023/12/18 12:25:20;;;;;;;19.33;12.65;;;;;;;;;;5043569;28;20087;-61
2023/12/18 12:27:46;;;;;;;23.73;12.95;;;;;;;;;;5038641;28;20063;-61
2023/12/18 12:30:13;;;;;;;19.10;11.77;;;;;;;;;;5044766;28;20051;-61
2023/12/18 12:32:40;;;;;;;15.82;10.77;;;;;;;;;;5043929;28;20115;-61
2023/12/18 12:35:11;;;;;;;15.13;11.15;;;;;;;;;;5045103;28;20079;-62
2023/12/18 12:37:37;;;;;;;20.25;11.45;;;;;;;;;;5040650;28;20087;-62
2023/12/18 12:40:06;;;;;;;19.58;10.50;;;;;;;;;;5049110;28;20049;-61
2023/12/18 12:42:38;;;;;;;27.90;12.90;;;;;;;;;;5049107;28;20409;-61
2023/12/18 12:45:04;;;;;;;20.75;11.32;;;;;;;;;;5049530;28;20075;-61
2023/12/18 12:47:30;;;;;;;21.20;11.70;;;;;;;;;;5048808;28;20069;-61
2023/12/18 12:50:01;;;;;;;23.65;12.38;;;;;;;;;;5049126;28;20044;-61
2023/12/18 12:52:29;;;;;;;19.05;13.07;;;;;;;;;;5040690;28;20125;-61
2023/12/18 12:54:55;;;;;;;18.73;12.45;;;;;;;;;;5048905;28;20386;-61
2023/12/18 12:57:21;;;;;;;14.05;11.15;;;;;;;;;;5048255;28;20044;-61
2023/12/18 12:59:50;;;;;;;21.23;12.50;;;;;;;;;;5049247;28;20137;-62
2023/12/18 13:02:17;;;;;;;17.30;11.70;;;;;;;;;;5047007;28;20152;-61
2023/12/18 13:04:43;;;;;;;17.83;11.98;;;;;;;;;;5049139;28;20048;-61
2023/12/18 13:07:09;;;;;;;21.08;13.20;;;;;;;;;;5048655;28;20124;-61
2023/12/18 13:09:35;;;;;;;23.48;13.82;;;;;;;;;;5048471;28;20082;-61
2023/12/18 13:12:04;;;;;;;26.40;13.05;;;;;;;;;;5046530;28;20049;-61
2023/12/18 13:14:33;;;;;;;17.80;12.00;;;;;;;;;;5047832;28;20045;-61
2023/12/18 13:16:59;;;;;;;22.83;14.10;;;;;;;;;;5048784;28;20059;-61
2023/12/18 13:19:25;;;;;;;20.33;14.18;;;;;;;;;;5049020;28;20563;-61
2023/12/18 13:21:52;;;;;;;24.88;15.00;;;;;;;;;;5048338;28;20044;-61
2023/12/18 13:24:18;;;;;;;23.25;13.35;;;;;;;;;;5048787;28;20118;-61
2023/12/18 13:26:44;;;;;;;26.85;14.27;;;;;;;;;;5048464;28;20041;-61
2023/12/18 13:29:10;;;;;;;20.85;13.65;;;;;;;;;;5048004;28;20227;-61
2023/12/18 13:31:37;;;;;;;28.63;14.50;;;;;;;;;;5046108;28;20140;-61
2023/12/18 13:34:03;;;;;;;18.15;12.77;;;;;;;;;;5038721;28;20148;-61
2023/12/18 13:36:30;;;;;;;23.38;13.70;;;;;;;;;;5047238;28;20037;-61
2023/12/18 13:38:56;;;;;;;20.35;12.23;;;;;;;;;;5048836;28;20033;-61
2023/12/18 13:41:27;;;;;;;18.88;12.13;;;;;;;;;;5047857;28;20044;-61
2023/12/18 13:43:53;;;;;;;20.45;12.63;;;;;;;;;;5048892;28;20040;-61
2023/12/18 13:46:19;;;;;;;17.45;11.98;;;;;;;;;;5047924;28;20047;-61
2023/12/18 13:48:45;;;;;;;20.98;13.10;;;;;;;;;;5046953;28;20091;-61
2023/12/18 13:51:11;;;;;;;20.98;13.73;;;;;;;;;;5047559;28;20045;-61
2023/12/18 13:53:37;;;;;;;18.08;11.50;;;;;;;;;;5047057;28;20094;-61
2023/12/18 13:56:03;;;;;;;18.25;12.07;;;;;;;;;;5048170;28;20040;-61
2023/12/18 13:58:29;;;;;;;20.90;12.27;;;;;;;;;;5045920;28;20083;-61
2023/12/18 14:00:55;;;;;;;21.83;12.02;;;;;;;;;;5046516;28;20041;-61
2023/12/18 14:03:21;;;;;;;21.23;12.63;;;;;;;;;;5047967;28;20382;-61
2023/12/18 14:05:47;;;;;;;16.20;11.73;;;;;;;;;;5047329;28;20119;-61
2023/12/18 14:08:13;;;;;;;21.67;13.00;;;;;;;;;;5047983;28;20048;-61
2023/12/18 14:10:40;;;;;;;26.27;13.50;;;;;;;;;;5047828;28;20037;-61
2023/12/18 14:13:06;;;;;;;24.05;12.95;;;;;;;;;;5044998;28;20049;-61
2023/12/18 14:15:32;;;;;;;17.75;12.35;;;;;;;;;;5046347;28;20496;-61
2023/12/18 14:17:58;;;;;;;19.33;11.43;;;;;;;;;;5039370;28;20041;-62
2023/12/18 14:20:24;;;;;;;20.52;12.32;;;;;;;;;;5048288;28;20778;-62
2023/12/18 14:22:50;;;;;;;19.95;11.43;;;;;;;;;;5047174;28;20053;-61
2023/12/18 14:25:16;;;;;;;23.35;12.75;;;;;;;;;;5043395;28;20049;-62